Time;durP1;ratioP1;P1;durP2;ratioP2;P2;SDS_P1;SDS_P2;PMS_P1;PMS_P2;Temp;Humidity;BMP_temperature;BMP_pressure;BME280_temperature;BME280_humidity;BME280_pressure;Samples;Min_cycle;Max_cycle;Signal;HPM_P1;HPM_P2
2022/08/03 00:01:27;;;;;;;1.20;0.98;;;;;;;;;;7386127;19;20151;-68
2022/08/03 00:03:52;;;;;;;0.30;0.30;;;;;;;;;;7390786;19;20534;-68
2022/08/03 00:06:18;;;;;;;0.40;0.40;;;;;;;;;;7393223;19;20118;-68
2022/08/03 00:08:43;;;;;;;0.40;0.40;;;;;;;;;;7393764;19;20121;-68
2022/08/03 00:11:08;;;;;;;0.77;0.77;;;;;;;;;;7392580;19;20119;-68
2022/08/03 00:13:33;;;;;;;0.40;0.40;;;;;;;;;;7392678;19;20133;-68
2022/08/03 00:15:59;;;;;;;0.95;0.95;;;;;;;;;;7390436;19;20225;-68
2022/08/03 00:18:24;;;;;;;0.30;0.30;;;;;;;;;;7394963;19;20121;-68
2022/08/03 00:20:49;;;;;;;0.30;0.30;;;;;;;;;;7388985;19;20121;-68
2022/08/03 00:23:15;;;;;;;0.30;0.30;;;;;;;;;;7391256;19;20145;-69
2022/08/03 00:25:40;;;;;;;0.30;0.30;;;;;;;;;;7390177;19;20113;-68
2022/08/03 00:28:06;;;;;;;0.35;0.35;;;;;;;;;;7392304;19;20121;-68
2022/08/03 00:30:31;;;;;;;0.57;0.57;;;;;;;;;;7391219;19;20603;-68
2022/08/03 00:32:58;;;;;;;0.30;0.30;;;;;;;;;;7387285;19;20152;-68
2022/08/03 00:35:23;;;;;;;0.32;0.32;;;;;;;;;;7391691;19;20117;-68
2022/08/03 00:37:49;;;;;;;0.30;0.30;;;;;;;;;;7393790;19;20141;-69
2022/08/03 00:40:15;;;;;;;0.38;0.38;;;;;;;;;;7392276;19;20582;-68
2022/08/03 00:42:55;;;;;;;0.50;0.50;;;;;;;;;;7389341;19;20145;-68
2022/08/03 00:45:32;;;;;;;0.30;0.30;;;;;;;;;;7390104;19;20127;-68
2022/08/03 00:47:57;;;;;;;0.50;0.50;;;;;;;;;;7392242;19;20662;-68
2022/08/03 00:50:25;;;;;;;0.45;0.45;;;;;;;;;;7392128;19;20143;-68
2022/08/03 00:52:52;;;;;;;0.30;0.30;;;;;;;;;;7389982;19;20152;-68
2022/08/03 00:55:18;;;;;;;0.30;0.30;;;;;;;;;;7388646;19;20474;-68
2022/08/03 00:57:43;;;;;;;2.05;1.10;;;;;;;;;;7392131;19;20443;-68
2022/08/03 01:00:11;;;;;;;0.50;0.50;;;;;;;;;;7389704;19;20125;-68
2022/08/03 01:02:37;;;;;;;0.88;0.85;;;;;;;;;;7391280;19;20596;-68
2022/08/03 01:05:03;;;;;;;0.40;0.40;;;;;;;;;;7392385;19;20607;-68
2022/08/03 01:07:50;;;;;;;0.30;0.30;;;;;;;;;;7392203;19;20148;-68
2022/08/03 01:10:31;;;;;;;0.30;0.30;;;;;;;;;;7390824;19;20140;-68
2022/08/03 01:13:11;;;;;;;1.10;1.00;;;;;;;;;;7388786;19;20149;-68
2022/08/03 01:15:42;;;;;;;1.17;1.08;;;;;;;;;;7391601;19;20113;-68
2022/08/03 01:18:17;;;;;;;0.38;0.38;;;;;;;;;;7389991;19;20157;-68
2022/08/03 01:20:45;;;;;;;0.93;0.80;;;;;;;;;;7387602;19;20120;-68
2022/08/03 01:23:32;;;;;;;0.63;0.60;;;;;;;;;;7389365;19;20145;-68
2022/08/03 01:26:16;;;;;;;0.57;0.57;;;;;;;;;;7388988;19;20153;-68
2022/08/03 01:28:55;;;;;;;0.30;0.30;;;;;;;;;;7391308;19;20116;-68
2022/08/03 01:31:25;;;;;;;0.30;0.30;;;;;;;;;;7389540;19;20592;-68
2022/08/03 01:33:56;;;;;;;0.30;0.30;;;;;;;;;;7387870;19;20117;-68
2022/08/03 01:36:23;;;;;;;0.85;0.40;;;;;;;;;;7388394;19;20590;-68
2022/08/03 01:38:55;;;;;;;1.55;1.10;;;;;;;;;;7389147;19;20282;-68
2022/08/03 01:41:24;;;;;;;0.40;0.40;;;;;;;;;;7387427;19;20197;-68
2022/08/03 01:43:51;;;;;;;0.20;0.20;;;;;;;;;;7388024;19;20582;-68
2022/08/03 01:46:19;;;;;;;0.32;0.32;;;;;;;;;;7388571;19;20177;-68
2022/08/03 01:48:46;;;;;;;0.32;0.32;;;;;;;;;;7384121;19;20138;-68
2022/08/03 01:51:12;;;;;;;0.30;0.30;;;;;;;;;;7387491;19;20117;-68
2022/08/03 01:53:41;;;;;;;0.35;0.35;;;;;;;;;;7388745;19;20118;-68
2022/08/03 01:56:07;;;;;;;0.35;0.35;;;;;;;;;;7388899;19;20137;-68
2022/08/03 01:58:34;;;;;;;0.40;0.40;;;;;;;;;;7387917;19;20462;-68
2022/08/03 02:01:00;;;;;;;0.35;0.35;;;;;;;;;;7387017;19;20117;-68
2022/08/03 02:03:31;;;;;;;0.63;0.63;;;;;;;;;;7375866;19;20207;-68
2022/08/03 02:05:57;;;;;;;0.40;0.40;;;;;;;;;;7386216;19;20200;-68
2022/08/03 02:08:23;;;;;;;1.75;0.77;;;;;;;;;;7387708;19;20148;-68
2022/08/03 02:10:48;;;;;;;0.30;0.30;;;;;;;;;;7387194;19;20121;-68
2022/08/03 02:13:14;;;;;;;0.20;0.20;;;;;;;;;;7386272;19;20160;-68
2022/08/03 02:15:40;;;;;;;0.30;0.30;;;;;;;;;;7388062;19;20132;-68
2022/08/03 02:18:07;;;;;;;0.35;0.35;;;;;;;;;;7387295;19;20129;-68
2022/08/03 02:20:35;;;;;;;0.50;0.50;;;;;;;;;;7386497;19;20129;-68
2022/08/03 02:23:00;;;;;;;0.30;0.30;;;;;;;;;;7385468;19;20149;-68
2022/08/03 02:25:26;;;;;;;0.40;0.40;;;;;;;;;;7388973;19;20435;-68
2022/08/03 02:27:54;;;;;;;0.30;0.30;;;;;;;;;;7386678;19;20590;-68
2022/08/03 02:30:20;;;;;;;0.32;0.32;;;;;;;;;;7388434;19;20117;-68
2022/08/03 02:32:50;;;;;;;0.45;0.45;;;;;;;;;;7385164;19;20156;-68
2022/08/03 02:35:18;;;;;;;0.75;0.75;;;;;;;;;;7384880;19;20495;-68
2022/08/03 02:37:46;;;;;;;13.68;1.02;;;;;;;;;;7386672;19;20185;-68
2022/08/03 02:40:12;;;;;;;0.30;0.30;;;;;;;;;;7386263;19;20204;-68
2022/08/03 02:42:37;;;;;;;0.30;0.30;;;;;;;;;;7385733;19;20173;-68
2022/08/03 02:45:06;;;;;;;0.20;0.20;;;;;;;;;;7386638;19;20149;-68
2022/08/03 02:47:31;;;;;;;0.32;0.32;;;;;;;;;;7387512;19;20133;-68
2022/08/03 02:49:59;;;;;;;0.30;0.30;;;;;;;;;;7385540;19;20197;-68
2022/08/03 02:52:27;;;;;;;0.50;0.50;;;;;;;;;;7385038;19;20145;-68
2022/08/03 02:54:56;;;;;;;0.30;0.30;;;;;;;;;;7385575;19;20550;-68
2022/08/03 02:57:22;;;;;;;0.50;0.50;;;;;;;;;;7386606;19;20488;-68
2022/08/03 02:59:48;;;;;;;0.20;0.20;;;;;;;;;;7385242;19;20113;-68
2022/08/03 03:02:15;;;;;;;0.85;0.85;;;;;;;;;;7386521;19;20600;-68
2022/08/03 03:04:41;;;;;;;0.30;0.30;;;;;;;;;;7384754;19;20136;-68
2022/08/03 03:07:06;;;;;;;0.60;0.60;;;;;;;;;;7385728;19;20878;-69
2022/08/03 03:09:33;;;;;;;0.73;0.55;;;;;;;;;;7386381;19;20125;-68
2022/08/03 03:11:58;;;;;;;0.65;0.65;;;;;;;;;;7386374;19;20614;-68
2022/08/03 03:14:25;;;;;;;0.77;0.60;;;;;;;;;;7386243;19;20113;-68
2022/08/03 03:16:50;;;;;;;0.30;0.30;;;;;;;;;;7387384;19;20121;-68
2022/08/03 03:19:16;;;;;;;0.30;0.30;;;;;;;;;;7387544;19;20160;-68
2022/08/03 03:21:42;;;;;;;0.40;0.40;;;;;;;;;;7395271;19;20930;-68
2022/08/03 03:24:08;;;;;;;0.65;0.65;;;;;;;;;;7392583;19;20148;-68
2022/08/03 03:26:34;;;;;;;0.20;0.20;;;;;;;;;;7394467;19;20125;-68
2022/08/03 03:29:00;;;;;;;0.30;0.30;;;;;;;;;;7396305;19;20157;-68
2022/08/03 03:31:26;;;;;;;0.30;0.30;;;;;;;;;;7394153;19;20183;-68
2022/08/03 03:33:51;;;;;;;1.10;1.10;;;;;;;;;;7392549;19;20121;-68
2022/08/03 03:36:17;;;;;;;0.30;0.30;;;;;;;;;;7394534;19;20242;-68
2022/08/03 03:38:42;;;;;;;0.30;0.30;;;;;;;;;;7393298;19;20121;-68
2022/08/03 03:41:08;;;;;;;0.22;0.22;;;;;;;;;;7391456;19;20476;-68
2022/08/03 03:43:33;;;;;;;0.20;0.20;;;;;;;;;;7393507;19;20136;-68
2022/08/03 03:45:59;;;;;;;0.30;0.30;;;;;;;;;;7396232;19;20121;-68
2022/08/03 03:48:25;;;;;;;0.35;0.35;;;;;;;;;;7392655;19;20141;-68
2022/08/03 03:50:50;;;;;;;5.78;2.28;;;;;;;;;;7395272;19;20630;-68
2022/08/03 03:53:16;;;;;;;0.30;0.30;;;;;;;;;;7389678;19;20166;-68
2022/08/03 03:55:41;;;;;;;0.32;0.32;;;;;;;;;;7394241;19;20162;-68
2022/08/03 03:58:07;;;;;;;0.30;0.30;;;;;;;;;;7393164;19;20236;-68
2022/08/03 04:00:32;;;;;;;0.77;0.77;;;;;;;;;;7392216;19;20207;-68
2022/08/03 04:02:58;;;;;;;0.30;0.30;;;;;;;;;;7391148;19;20137;-68
2022/08/03 04:11:10;;;;;;;0.95;0.73;;;;;;;;;;7393052;19;20136;-68
2022/08/03 04:13:45;;;;;;;0.30;0.30;;;;;;;;;;7388042;19;20121;-68
2022/08/03 04:16:12;;;;;;;0.38;0.38;;;;;;;;;;7391892;19;20117;-68
2022/08/03 04:18:39;;;;;;;0.40;0.40;;;;;;;;;;7393040;19;20240;-68
2022/08/03 04:21:08;;;;;;;0.85;0.85;;;;;;;;;;7389722;19;20587;-68
2022/08/03 04:23:37;;;;;;;0.50;0.50;;;;;;;;;;7391074;19;20129;-68
2022/08/03 04:26:04;;;;;;;0.30;0.30;;;;;;;;;;7391214;19;20482;-68
2022/08/03 04:28:30;;;;;;;0.43;0.43;;;;;;;;;;7386142;19;20145;-68
2022/08/03 04:30:55;;;;;;;0.30;0.30;;;;;;;;;;7386981;19;20121;-68
2022/08/03 04:33:22;;;;;;;0.47;0.47;;;;;;;;;;7388055;19;20173;-68
2022/08/03 04:35:48;;;;;;;0.40;0.40;;;;;;;;;;7392416;19;20113;-68
2022/08/03 04:38:15;;;;;;;0.40;0.40;;;;;;;;;;7392037;19;20188;-67
2022/08/03 04:40:41;;;;;;;0.40;0.40;;;;;;;;;;7388688;19;20121;-66
2022/08/03 04:43:09;;;;;;;0.30;0.30;;;;;;;;;;7388474;19;20151;-66
2022/08/03 04:45:35;;;;;;;0.50;0.50;;;;;;;;;;7389858;19;20152;-66
2022/08/03 04:48:02;;;;;;;0.35;0.35;;;;;;;;;;7390528;19;20535;-66
2022/08/03 16:40:23;;;;;;;0.40;0.40;;;;;;;;;;7384865;19;20980;-70
2022/08/03 16:42:48;;;;;;;0.40;0.40;;;;;;;;;;7378625;19;20181;-69
2022/08/03 16:45:14;;;;;;;0.40;0.40;;;;;;;;;;7381295;19;20136;-69
2022/08/03 16:47:39;;;;;;;0.40;0.40;;;;;;;;;;7377203;19;20141;-69
2022/08/03 16:50:05;;;;;;;0.50;0.50;;;;;;;;;;7379234;19;20152;-69
2022/08/03 16:52:31;;;;;;;1.15;0.50;;;;;;;;;;7381503;19;20183;-69
2022/08/03 16:54:57;;;;;;;0.30;0.30;;;;;;;;;;7383663;19;20136;-69
2022/08/03 16:57:23;;;;;;;0.35;0.35;;;;;;;;;;7390705;19;20125;-69
2022/08/03 16:59:48;;;;;;;0.38;0.38;;;;;;;;;;7385947;19;20140;-69
2022/08/03 17:02:22;;;;;;;0.50;0.50;;;;;;;;;;7395677;19;20152;-69
2022/08/03 17:04:47;;;;;;;0.32;0.32;;;;;;;;;;7384900;19;20137;-69
2022/08/03 17:07:14;;;;;;;0.32;0.32;;;;;;;;;;7389814;19;20445;-69
2022/08/03 17:09:39;;;;;;;0.60;0.60;;;;;;;;;;7394027;19;20121;-69
2022/08/03 17:12:06;;;;;;;0.43;0.43;;;;;;;;;;7384497;19;20153;-69
2022/08/03 17:14:31;;;;;;;0.30;0.30;;;;;;;;;;7389788;19;20768;-69
2022/08/03 17:16:59;;;;;;;0.40;0.40;;;;;;;;;;7387692;19;20128;-66
2022/08/03 17:19:25;;;;;;;0.50;0.50;;;;;;;;;;7393061;19;20117;-66
2022/08/03 17:21:59;;;;;;;0.30;0.30;;;;;;;;;;7388745;19;20622;-67
2022/08/03 17:24:31;;;;;;;0.40;0.40;;;;;;;;;;7392432;19;20113;-67
2022/08/03 17:27:00;;;;;;;0.55;0.55;;;;;;;;;;7392146;19;20136;-67
2022/08/03 17:29:26;;;;;;;0.50;0.50;;;;;;;;;;7389136;19;20117;-67
2022/08/03 17:31:52;;;;;;;0.32;0.32;;;;;;;;;;7389187;19;20641;-69
2022/08/03 17:34:18;;;;;;;0.35;0.35;;;;;;;;;;7391629;19;20133;-69
2022/08/03 17:36:44;;;;;;;0.50;0.50;;;;;;;;;;7388115;19;20132;-69
2022/08/03 17:39:12;;;;;;;0.30;0.30;;;;;;;;;;7390629;19;20124;-69
2022/08/03 17:41:38;;;;;;;0.43;0.43;;;;;;;;;;7392580;19;20165;-69
2022/08/03 17:44:04;;;;;;;1.75;0.63;;;;;;;;;;7386490;19;20121;-69
2022/08/03 17:46:30;;;;;;;0.40;0.40;;;;;;;;;;7380403;19;20125;-69
2022/08/03 17:48:55;;;;;;;0.40;0.40;;;;;;;;;;7390287;19;20617;-68
2022/08/03 17:51:25;;;;;;;0.30;0.30;;;;;;;;;;7384287;19;20232;-69
2022/08/03 17:53:59;;;;;;;0.40;0.40;;;;;;;;;;7375871;19;20477;-69
2022/08/03 17:56:32;;;;;;;1.27;0.70;;;;;;;;;;7385781;19;20120;-69
2022/08/03 17:59:20;;;;;;;0.40;0.40;;;;;;;;;;7379061;19;20217;-69
2022/08/03 18:04:45;;;;;;;0.45;0.40;;;;;;;;;;7375980;19;20152;-69
2022/08/03 18:07:12;;;;;;;0.40;0.40;;;;;;;;;;7386215;19;20424;-69
2022/08/03 18:09:40;;;;;;;0.30;0.30;;;;;;;;;;7386822;19;20125;-69
2022/08/03 18:12:10;;;;;;;0.40;0.40;;;;;;;;;;7388087;19;20176;-70
2022/08/03 18:14:41;;;;;;;0.50;0.50;;;;;;;;;;7384454;19;20125;-69
2022/08/03 18:17:14;;;;;;;0.47;0.47;;;;;;;;;;7391698;19;20181;-70
2022/08/03 18:19:39;;;;;;;0.35;0.35;;;;;;;;;;7390847;19;20129;-69
2022/08/03 18:22:05;;;;;;;0.50;0.50;;;;;;;;;;7387204;19;20148;-69
2022/08/03 18:24:30;;;;;;;0.65;0.65;;;;;;;;;;7390035;19;20113;-69
2022/08/03 18:26:57;;;;;;;0.50;0.50;;;;;;;;;;7384329;19;20132;-69
2022/08/03 18:29:24;;;;;;;0.45;0.45;;;;;;;;;;7391092;19;20587;-69
2022/08/03 18:31:56;;;;;;;0.40;0.40;;;;;;;;;;7391138;19;20677;-69
2022/08/03 18:34:22;;;;;;;0.50;0.50;;;;;;;;;;7386459;19;20121;-69
2022/08/03 18:36:48;;;;;;;0.38;0.38;;;;;;;;;;7389145;19;20144;-70
2022/08/03 18:39:13;;;;;;;0.50;0.50;;;;;;;;;;7391267;19;20562;-69
2022/08/03 18:41:39;;;;;;;0.32;0.32;;;;;;;;;;7386276;19;20153;-69
2022/08/03 18:44:05;;;;;;;0.68;0.68;;;;;;;;;;7380172;19;20121;-69
2022/08/03 18:46:39;;;;;;;0.40;0.40;;;;;;;;;;7384481;19;20128;-69
2022/08/03 18:49:23;;;;;;;0.30;0.30;;;;;;;;;;7393402;19;20145;-69
2022/08/03 18:51:52;;;;;;;0.75;0.75;;;;;;;;;;7388347;19;20160;-69
2022/08/03 18:54:20;;;;;;;0.50;0.50;;;;;;;;;;7384886;19;20149;-69
2022/08/03 18:56:51;;;;;;;0.30;0.30;;;;;;;;;;7391783;19;20121;-69
2022/08/03 18:59:44;;;;;;;0.65;0.63;;;;;;;;;;7391473;19;20125;-69
2022/08/03 19:02:37;;;;;;;0.30;0.30;;;;;;;;;;7386875;19;20216;-69
2022/08/03 19:05:06;;;;;;;0.47;0.47;;;;;;;;;;7389710;19;20125;-69
2022/08/03 19:07:32;;;;;;;0.30;0.30;;;;;;;;;;7387435;19;20125;-69
2022/08/03 19:09:58;;;;;;;0.40;0.40;;;;;;;;;;7389515;19;20133;-69
2022/08/03 19:12:30;;;;;;;0.40;0.40;;;;;;;;;;7383582;19;20152;-69
2022/08/03 19:14:59;;;;;;;0.30;0.30;;;;;;;;;;7384311;19;20136;-69
2022/08/03 19:17:26;;;;;;;0.43;0.43;;;;;;;;;;7390175;19;20506;-69
2022/08/03 19:19:52;;;;;;;0.30;0.30;;;;;;;;;;7378746;19;20177;-69
2022/08/03 19:22:20;;;;;;;1.45;0.55;;;;;;;;;;7386648;19;20145;-69
2022/08/03 19:24:47;;;;;;;0.40;0.40;;;;;;;;;;7387683;19;20614;-69
2022/08/03 19:27:13;;;;;;;0.30;0.30;;;;;;;;;;7382719;19;20181;-69
2022/08/03 19:29:45;;;;;;;0.57;0.57;;;;;;;;;;7387979;19;20137;-69
2022/08/03 19:32:15;;;;;;;0.40;0.40;;;;;;;;;;7386615;19;20157;-69
2022/08/03 19:34:41;;;;;;;0.52;0.52;;;;;;;;;;7382200;19;20124;-69
2022/08/03 19:37:11;;;;;;;0.73;0.73;;;;;;;;;;7374285;19;20882;-70
2022/08/03 19:39:36;;;;;;;0.60;0.60;;;;;;;;;;7383218;19;20420;-69
2022/08/03 19:42:08;;;;;;;0.40;0.40;;;;;;;;;;7382068;19;20160;-69
2022/08/03 19:44:36;;;;;;;0.73;0.73;;;;;;;;;;7379252;19;20138;-69
2022/08/03 19:47:08;;;;;;;0.40;0.40;;;;;;;;;;7385252;19;20201;-69
2022/08/03 19:49:38;;;;;;;0.43;0.43;;;;;;;;;;7382099;19;20136;-68
2022/08/03 19:52:08;;;;;;;0.38;0.38;;;;;;;;;;7381876;19;20233;-68
2022/08/03 19:54:44;;;;;;;0.85;0.68;;;;;;;;;;7376882;19;20131;-70
2022/08/03 19:57:15;;;;;;;0.50;0.50;;;;;;;;;;7384915;19;20132;-68
2022/08/03 19:59:41;;;;;;;0.38;0.38;;;;;;;;;;7388568;19;20125;-67
2022/08/03 20:02:07;;;;;;;0.40;0.40;;;;;;;;;;7380136;19;20153;-68
2022/08/03 20:04:33;;;;;;;0.30;0.30;;;;;;;;;;7388800;19;20511;-67
2022/08/03 20:06:59;;;;;;;0.50;0.50;;;;;;;;;;7383056;19;20129;-67
2022/08/03 20:09:25;;;;;;;0.82;0.82;;;;;;;;;;7379899;19;20117;-68
2022/08/03 20:11:51;;;;;;;0.40;0.40;;;;;;;;;;7381465;19;20157;-68
2022/08/03 20:14:18;;;;;;;0.40;0.40;;;;;;;;;;7380622;19;20639;-68
2022/08/03 20:16:44;;;;;;;0.30;0.30;;;;;;;;;;7376455;19;20125;-68
2022/08/03 20:19:09;;;;;;;0.30;0.30;;;;;;;;;;7377615;19;20138;-67
2022/08/03 20:21:34;;;;;;;0.63;0.63;;;;;;;;;;7375592;19;20148;-68
2022/08/03 20:24:02;;;;;;;1.60;0.98;;;;;;;;;;7376060;19;20117;-67
2022/08/03 20:26:29;;;;;;;0.30;0.30;;;;;;;;;;7379575;19;20141;-67
2022/08/03 20:28:57;;;;;;;0.47;0.47;;;;;;;;;;7382970;19;20132;-68
2022/08/03 20:31:22;;;;;;;0.52;0.52;;;;;;;;;;7377091;19;20149;-68
2022/08/03 20:33:48;;;;;;;0.43;0.43;;;;;;;;;;7389603;19;20121;-68
2022/08/03 20:36:13;;;;;;;0.40;0.40;;;;;;;;;;7382420;19;20152;-67
2022/08/03 20:38:39;;;;;;;0.52;0.52;;;;;;;;;;7382252;19;20133;-67
2022/08/03 20:41:04;;;;;;;0.30;0.30;;;;;;;;;;7382133;19;20129;-68
2022/08/03 20:43:30;;;;;;;0.40;0.40;;;;;;;;;;7382231;19;20128;-68
2022/08/03 20:45:55;;;;;;;0.30;0.30;;;;;;;;;;7381939;19;20165;-67
2022/08/03 20:48:21;;;;;;;0.38;0.38;;;;;;;;;;7374248;19;20148;-67
2022/08/03 20:50:47;;;;;;;6.38;0.88;;;;;;;;;;7379104;19;20128;-67
2022/08/03 20:53:12;;;;;;;0.40;0.40;;;;;;;;;;7369867;19;20149;-68
2022/08/03 20:55:39;;;;;;;0.30;0.30;;;;;;;;;;7364742;19;20147;-67
2022/08/03 20:58:05;;;;;;;0.50;0.50;;;;;;;;;;7374602;19;20550;-67
2022/08/03 21:00:30;;;;;;;0.35;0.35;;;;;;;;;;7376982;19;20145;-67
2022/08/03 21:02:56;;;;;;;0.30;0.30;;;;;;;;;;7371350;19;20196;-67
2022/08/03 21:05:21;;;;;;;0.90;0.60;;;;;;;;;;7373629;19;20142;-68
2022/08/03 21:07:46;;;;;;;0.30;0.30;;;;;;;;;;7374293;19;20144;-67
2022/08/03 21:10:14;;;;;;;0.30;0.30;;;;;;;;;;7382234;19;20138;-67
2022/08/03 21:12:51;;;;;;;0.63;0.63;;;;;;;;;;7379883;19;20153;-68
2022/08/03 21:15:29;;;;;;;0.30;0.30;;;;;;;;;;7371639;19;20121;-67
2022/08/03 21:17:56;;;;;;;0.73;0.73;;;;;;;;;;7380525;19;20125;-68
2022/08/03 21:20:25;;;;;;;0.40;0.40;;;;;;;;;;7386474;19;20133;-67
2022/08/03 21:22:55;;;;;;;0.70;0.63;;;;;;;;;;7386366;19;20156;-67
2022/08/03 21:25:28;;;;;;;0.50;0.50;;;;;;;;;;7381058;19;20137;-68
2022/08/03 21:27:54;;;;;;;0.47;0.47;;;;;;;;;;7387034;19;20125;-68
2022/08/03 21:30:21;;;;;;;0.40;0.40;;;;;;;;;;7388585;19;20502;-67
2022/08/03 21:32:48;;;;;;;0.50;0.50;;;;;;;;;;7384632;19;20665;-67
2022/08/03 21:35:13;;;;;;;0.30;0.30;;;;;;;;;;7378165;19;20148;-68
2022/08/03 21:37:40;;;;;;;0.38;0.38;;;;;;;;;;7374681;19;20121;-68
2022/08/03 21:40:07;;;;;;;1.17;0.50;;;;;;;;;;7374399;19;20144;-67
2022/08/03 21:42:33;;;;;;;0.45;0.45;;;;;;;;;;7376841;19;20168;-68
2022/08/03 21:44:58;;;;;;;1.75;0.73;;;;;;;;;;7379204;19;20137;-68
2022/08/03 21:47:23;;;;;;;1.85;0.77;;;;;;;;;;7382359;19;20610;-67
2022/08/03 21:49:52;;;;;;;0.30;0.30;;;;;;;;;;7384146;19;20125;-67
2022/08/03 21:52:19;;;;;;;0.50;0.50;;;;;;;;;;7382975;19;20157;-68
2022/08/03 21:54:48;;;;;;;0.50;0.50;;;;;;;;;;7383568;19;20148;-68
2022/08/03 21:57:22;;;;;;;0.40;0.40;;;;;;;;;;7386858;19;20125;-67
2022/08/03 21:59:52;;;;;;;0.30;0.30;;;;;;;;;;7387421;19;20128;-68
2022/08/03 22:02:19;;;;;;;0.38;0.38;;;;;;;;;;7391433;19;20172;-68
2022/08/03 22:04:45;;;;;;;0.40;0.40;;;;;;;;;;7383707;19;20129;-68
2022/08/03 22:07:10;;;;;;;0.40;0.40;;;;;;;;;;7389160;19;20128;-67
2022/08/03 22:09:35;;;;;;;0.30;0.30;;;;;;;;;;7392661;19;20128;-67
2022/08/03 22:12:01;;;;;;;0.40;0.40;;;;;;;;;;7383169;19;20140;-67
2022/08/03 22:14:26;;;;;;;0.30;0.30;;;;;;;;;;7379296;19;20137;-67
2022/08/03 22:16:52;;;;;;;0.30;0.30;;;;;;;;;;7383226;19;21199;-67
2022/08/03 22:19:17;;;;;;;0.35;0.35;;;;;;;;;;7379507;19;20446;-67
2022/08/03 22:21:46;;;;;;;0.50;0.50;;;;;;;;;;7383876;19;20149;-67
2022/08/03 22:24:12;;;;;;;0.50;0.50;;;;;;;;;;7377855;19;20204;-68
2022/08/03 22:26:38;;;;;;;0.35;0.35;;;;;;;;;;7383389;19;20188;-68
2022/08/03 22:29:06;;;;;;;0.30;0.30;;;;;;;;;;7382795;19;20201;-67
2022/08/03 22:31:32;;;;;;;0.43;0.43;;;;;;;;;;7375796;19;20159;-67
2022/08/03 22:33:57;;;;;;;0.88;0.88;;;;;;;;;;7381567;19;20523;-67
2022/08/03 22:36:24;;;;;;;0.40;0.40;;;;;;;;;;7374486;19;20139;-67
2022/08/03 22:38:52;;;;;;;0.32;0.32;;;;;;;;;;7378547;19;20129;-67
2022/08/03 22:41:18;;;;;;;0.47;0.47;;;;;;;;;;7378828;19;20117;-67
2022/08/03 22:43:44;;;;;;;0.50;0.50;;;;;;;;;;7372178;19;20471;-67
2022/08/03 22:46:09;;;;;;;0.40;0.40;;;;;;;;;;7387773;19;20130;-67
2022/08/03 22:48:36;;;;;;;0.50;0.50;;;;;;;;;;7389261;19;20143;-67
2022/08/03 22:51:02;;;;;;;0.40;0.40;;;;;;;;;;7369517;19;20121;-68
2022/08/03 22:53:28;;;;;;;0.60;0.60;;;;;;;;;;7374208;19;20133;-67
2022/08/03 22:55:54;;;;;;;0.50;0.50;;;;;;;;;;7381682;19;20152;-67
2022/08/03 22:58:19;;;;;;;0.55;0.55;;;;;;;;;;7383131;19;20172;-67
2022/08/03 23:00:54;;;;;;;0.43;0.43;;;;;;;;;;7384391;19;20772;-67
2022/08/03 23:03:23;;;;;;;0.38;0.38;;;;;;;;;;7380980;19;20160;-67
2022/08/03 23:05:50;;;;;;;0.50;0.50;;;;;;;;;;7388998;19;20121;-67
2022/08/03 23:08:20;;;;;;;0.43;0.43;;;;;;;;;;7391182;19;20121;-67
2022/08/03 23:10:46;;;;;;;0.30;0.30;;;;;;;;;;7388848;19;20120;-67
2022/08/03 23:13:12;;;;;;;0.30;0.30;;;;;;;;;;7370116;19;20641;-68
2022/08/03 23:15:37;;;;;;;0.55;0.55;;;;;;;;;;7377811;19;20508;-67
2022/08/03 23:18:03;;;;;;;1.55;0.52;;;;;;;;;;7382296;19;20208;-67
2022/08/03 23:20:28;;;;;;;0.30;0.30;;;;;;;;;;7375187;19;20501;-67
2022/08/03 23:22:54;;;;;;;0.30;0.30;;;;;;;;;;7377783;19;20145;-67
2022/08/03 23:25:20;;;;;;;0.40;0.40;;;;;;;;;;7379816;19;20531;-67
2022/08/03 23:27:48;;;;;;;0.47;0.47;;;;;;;;;;7381029;19;20128;-67
2022/08/03 23:30:13;;;;;;;0.43;0.43;;;;;;;;;;7380484;19;20132;-67
2022/08/03 23:32:41;;;;;;;0.40;0.40;;;;;;;;;;7380316;19;20216;-67
2022/08/03 23:37:52;;;;;;;0.45;0.45;;;;;;;;;;7384418;19;20149;-67
2022/08/03 23:40:24;;;;;;;0.30;0.30;;;;;;;;;;7379730;19;20146;-67
2022/08/03 23:42:51;;;;;;;0.30;0.30;;;;;;;;;;7380809;19;20167;-68
2022/08/03 23:45:18;;;;;;;0.30;0.30;;;;;;;;;;7384111;19;20121;-67
2022/08/03 23:47:43;;;;;;;0.45;0.45;;;;;;;;;;7377140;19;20121;-68
2022/08/03 23:50:09;;;;;;;0.30;0.30;;;;;;;;;;7376628;19;20124;-68
2022/08/03 23:52:41;;;;;;;0.40;0.40;;;;;;;;;;7375450;19;20148;-68
2022/08/03 23:55:09;;;;;;;0.30;0.30;;;;;;;;;;7384564;19;20152;-68
2022/08/03 23:57:53;;;;;;;0.40;0.40;;;;;;;;;;7379687;19;20148;-68
